Site contains unofficial IBTrACS data. Visit the IBTrACS Website to access archived data.

1999 Severe Tropical Cyclone VANCE (1999074S13132)


IBTrACS version v04r00. Visit IBTrACS website for data access.
Please direct all questions to the IBTrACS Q and A forum

Storm track - Intensity - Wind Radii - Intensity Data - Source Data - All data

Summary Information

Satellite image near maximum intensity
Storm ID 1999074S13132
Start Mar 14 12Z
Landfall Mar 16 03Z, Mar 16 21Z, Mar 22 05Z
Max Intensity 125 kt (Mar 20 18Z), 910 mb (Mar 20 19Z)
End Mar 23 22Z
ATCF IDs ,SH301999
Track status Best track data.

Storm track plot

Map of storm track

Intensity plots

Map of storm track

Radial wind information

Map of storm track

Position and Intensity Table

BASIN ISO_TIME_________ NATURE LAT LON WMO WIND WMO PRES USA WIND BOM WIND BOM PRES NEUMANN WIND
degrees north degrees east kts mb kts kts mb kts
SI 1999-03-14 12:00:00 NR -12.50 131.50 20 1005 20 1005
SI 15:00:00 NR -12.45 131.73 20 1004
SI 18:00:00 NR -12.40 131.90 20 1003 20 1003
SI 21:00:00 NR -12.36 131.99 22 1003
SI 1999-03-15 00:00:00 NR -12.30 132.00 25 1004 25 1004
SI 03:00:00 NR -12.15 131.95 25 1002
SI 06:00:00 NR -12.00 131.90 25 1001 25 1001
SI 09:00:00 NR -11.93 131.93 25 1002
SI 12:00:00 NR -11.90 132.00 25 1003 25 1003
SI 15:00:00 NR -11.84 132.10 25 1002
SI 18:00:00 NR -11.80 132.20 25 1001 25 1001
SI 21:00:00 NR -11.78 132.32 25 1001
SI 1999-03-16 00:00:00 TS -11.53 131.60 25 1002 20 25 1002 20
SI 03:00:00 TS -11.45 131.46 22 25 1001 22
SI 06:00:00 TS -11.46 131.56 25 1001 25 25 1001 25
SI 09:00:00 TS -11.55 131.72 25 25 1002 25
SI 12:00:00 TS -11.73 131.77 25 1003 25 25 1003 25
SI 15:00:00 TS -11.91 131.86 25 25 1002 25
SI 18:00:00 TS -12.10 131.77 25 1002 25 25 1002 25
SI 21:00:00 TS -12.35 131.32 25 25 1002 25
SI 1999-03-17 00:00:00 TS -12.57 130.73 25 1002 25 25 1002 25
SI 03:00:00 TS -12.68 130.27 25 25 1001 25
SI 06:00:00 TS -12.70 129.77 25 1000 25 25 1000 25
SI 09:00:00 TS -12.63 129.11 27 27 1000 27
SI 12:00:00 TS -12.53 128.47 30 1000 30 30 1000 30
SI 15:00:00 TS -12.49 127.98 30 32 999 30
SI 18:00:00 TS -12.50 127.60 35 998 30 35 998 30
SI 21:00:00 TS -12.59 127.32 32 37 996 32
SI 1999-03-18 00:00:00 TS -12.67 126.97 40 994 35 40 994 35
SI 03:00:00 TS -12.61 126.31 45 990 37 45 990 37
SI 06:00:00 TS -12.53 125.57 50 988 40 50 988 40
SI 09:00:00 TS -12.46 124.89 50 986 37 50 986 37
SI 12:00:00 TS -12.50 124.30 50 984 35 50 984 35
SI 15:00:00 TS -12.71 123.70 45 57 981 45
SI 16:00:00 TS -12.81 123.49 60 980 48 60 980 48
SI 18:00:00 TS -13.00 123.08 55 63 976 55
SI 19:00:00 TS -13.08 122.89 65 975 56 65 975 56
SI 21:00:00 TS -13.22 122.49 60 68 971 60
SI 22:00:00 TS -13.28 122.30 70 970 61 70 970 61
SI 1999-03-19 00:00:00 TS -13.39 121.96 65 70 966 65
SI 01:00:00 TS -13.44 121.77 70 965 66 70 965 66
SI 03:00:00 TS -13.55 121.34 70 73 961 70
SI 04:00:00 TS -13.61 121.13 75 960 71 75 960 71
SI 06:00:00 TS -13.74 120.69 75 75 960 75
SI 07:00:00 TS -13.82 120.50 75 960 75 75 960 75
SI 09:00:00 TS -14.00 120.14 77 78 956 77
SI 10:00:00 TS -14.09 119.98 80 955 78 80 955 78
SI 12:00:00 TS -14.27 119.68 80 83 955 80
SI 13:00:00 TS -14.34 119.55 85 955 81 85 955 81
SI 15:00:00 TS -14.49 119.29 85 88 951 85
SI 16:00:00 TS -14.57 119.16 90 950 86 90 950 86
SI 18:00:00 TS -14.73 118.89 90 93 950 90
SI 19:00:00 TS -14.84 118.72 95 950 90 95 950 90
SI 21:00:00 TS -15.08 118.37 90 98 946 90
SI 22:00:00 TS -15.21 118.20 100 945 90 100 945 90
SI 1999-03-20 00:00:00 TS -15.44 117.85 90 106 945 90
SI 01:00:00 TS -15.53 117.71 110 945 92 110 945 92
SI 03:00:00 TS -15.68 117.48 97 110 941 97
SI 04:00:00 TS -15.75 117.38 110 940 100 110 940 100
SI 06:00:00 TS -15.91 117.19 105 110 936 105
SI 07:00:00 TS -16.00 117.11 110 935 107 110 935 107
SI 09:00:00 TS -16.22 116.97 112 113 931 112
SI 10:00:00 TS -16.34 116.91 115 930 115 115 930 115
SI 12:00:00 TS -16.56 116.76 120 115 926 120
SI 13:00:00 TS -16.68 116.68 115 925 120 115 925 120
SI 15:00:00 TS -16.93 116.50 122 118 921 122
SI 16:00:00 TS -17.05 116.41 120 920 123 120 920 123
SI 18:00:00 TS -17.27 116.23 125 120 913 125
SI 19:00:00 TS -17.37 116.15 120 910 125 120 910 125
SI 21:00:00 TS -17.56 115.98 125 116 910 125
SI 22:00:00 TS -17.66 115.89 115 910 125 115 910 125
SI 1999-03-21 00:00:00 TS -17.89 115.70 125 108 913 125
SI 01:00:00 TS -18.01 115.58 105 915 125 105 915 125
SI 03:00:00 TS -18.21 115.32 125 105 915 125
SI 04:00:00 TS -18.31 115.20 105 915 125 105 915 125
SI 06:00:00 TS -18.53 114.96 125 101 918 125
SI 07:00:00 TS -18.64 114.88 100 920 125 100 920 125
SI 09:00:00 TS -18.88 114.79 125 100 920 125
SI 10:00:00 TS -19.00 114.74 100 920 125 100 920 125
SI 11:00:00 TS -19.11 114.69 105 920 125 105 920 125
SI 12:00:00 TS -19.27 114.67 105 920 125 105 920 125
SI 13:00:00 TS -19.42 114.61 105 920 125 105 920 125
SI 14:00:00 TS -19.54 114.55 110 920 125 110 920 125
SI 15:00:00 TS -19.67 114.52 110 920 125 110 920 125
SI 16:00:00 TS -19.80 114.47 110 920 125 110 920 125
SI 17:00:00 TS -19.98 114.45 110 920 125 110 920 125
SI 18:00:00 TS -20.13 114.43 110 920 125 110 920 125
SI 19:00:00 TS -20.37 114.42 110 920 125 110 920 125
SI 20:00:00 TS -20.58 114.40 110 920 125 110 920 125
SI 21:00:00 TS -20.81 114.39 110 920 125 110 920 125
SI 22:00:00 TS -21.03 114.39 110 920 125 110 920 125
SI 23:00:00 TS -21.25 114.39 110 920 125 110 920 125
SI 1999-03-22 00:00:00 TS -21.51 114.39 110 920 125 110 920 125
SI 01:00:00 NR -21.71 114.34 110 920 120 110 920
SI 02:00:00 NR -21.97 114.33 110 920 116 110 920
SI 03:00:00 NR -22.18 114.32 105 920 112 105 920
SI 04:00:00 NR -22.45 114.27 105 925 108 105 925
SI 05:00:00 NR -22.72 114.33 100 930 104 100 930
SI 06:00:00 NR -22.95 114.35 90 935 100 90 935
SI 07:00:00 NR -23.25 114.38 85 935 94 85 935
SI 08:00:00 NR -23.50 114.47 80 940 88 80 940
SI 09:00:00 NR -23.82 114.57 75 940 82 75 940
SI 10:00:00 NR -24.13 114.74 70 945 76 70 945
SI 11:00:00 NR -24.39 114.86 70 945 70 70 945
SI 12:00:00 NR -24.70 115.05 65 950 65 65 950
SI 13:00:00 NR -25.00 115.24 60 950 63 60 950
SI 14:00:00 NR -25.29 115.43 60 955 61 60 955
SI 15:00:00 NR -25.58 115.64 55 955 60 55 955
SI 16:00:00 NR -25.86 115.91 55 960 58 55 960
SI 18:00:00 NR -26.31 116.37 55 51 966
SI 19:00:00 NR -26.50 116.62 50 970 52 50 970
SI 21:00:00 NR -26.94 117.25 47 46 973
SI 22:00:00 NR -27.17 117.60 45 975 44 45 975
SI 1999-03-23 00:00:00 NR -27.67 118.30 40 45 978
SI 01:00:00 NR -27.96 118.67 45 980 38 45 980
SI 03:00:00 NR -28.61 119.54 35 41 983
SI 04:00:00 NR -28.95 120.01 40 985 33 40 985
SI 06:00:00 NR -29.61 121.01 30 36 986
SI 07:00:00 NR -29.93 121.53 35 988 29 35 988
SI 09:00:00 NR -30.61 122.68 27 35 989
SI 10:00:00 NR -31.02 123.40 35 990 26 35 990
SI 12:00:00 NR -31.74 124.91 25 31 990
SI 13:00:00 NR -32.30 126.10 30 990 30 990
SI 15:00:00 NR -32.89 127.55 30 990
SI 16:00:00 NR -33.20 128.30 30 990 30 990
SI 18:00:00 NR -33.85 129.83 30 990
SI 21:00:00 NR -34.86 132.19 30 990
SI 22:00:00 NR -35.20 133.00 30 990 30 990

Source Information

Agency Information
USA bsh301999.txt
TOKYO
CMA
HKO
NEWDELHI
REUNION
BOM IDCKMSTM0S.csv:Line=20157:VANCE
NADI
WELLINGTON
DS824
TD9636
TD9635
NEUMANN tracks.sh:Storm=1170:VANCE:BSH301999:JTWC
MLC

All available IBTrACS Data

SEASON BASIN SUBBASIN ISO_TIME_________ NATURE LAT LON WMO WIND WMO PRES WMO AGENCY DIST2LAND LANDFALL IFLAG USA AGENCY USA ATCF_ID USA LAT USA LON USA WIND USA SSHS BOM LAT BOM LON BOM TYPE BOM WIND BOM PRES BOM CI BOM R34 BOM ROCI BOM POCI BOM EYE BOM POS_METHOD BOM PRES_METHOD NEUMANN LAT NEUMANN LON NEUMANN CLASS NEUMANN WIND STORM SPEED STORM DIR
Year degrees north degrees east kts mb km km degrees north degrees east kts 1 degrees north degrees east kts mb 1 nmile nmile mb nmile degrees north degrees east kts kts degrees
1999 SI WA 1999-03-14 12:00:00 NR -12.50 131.50 20 1005 bom 0 0 ______O_______ -1 -12.50 131.50 20 20 1005 1.00 107 3 5 5 76
1999 SI WA 15:00:00 NR -12.45 131.73 0 0 ______P_______ -1 -12.45 131.73 20 20 1004 107 4 76
1999 SI WA 18:00:00 NR -12.40 131.90 20 1003 bom 0 0 ______O_______ -1 -12.40 131.90 20 20 1003 1.00 107 3 5 3 73
1999 SI WA 21:00:00 NR -12.36 131.99 0 0 ______P_______ -1 -12.36 131.99 20 22 1003 107 1 43
1999 SI WA 1999-03-15 00:00:00 NR -12.30 132.00 25 1004 bom 0 0 ______O_______ -1 -12.30 132.00 20 25 1004 1.50 107 3 5 2 347
1999 SI WA 03:00:00 NR -12.15 131.95 11 11 ______P_______ -1 -12.15 131.95 20 25 1002 107 3 343
1999 SI WA 06:00:00 NR -12.00 131.90 25 1001 bom 33 33 ______O_______ -1 -12.00 131.90 20 25 1001 1.50 107 3 5 2 353
1999 SI WA 09:00:00 NR -11.93 131.93 44 44 ______P_______ -1 -11.93 131.93 20 25 1002 107 1 43
1999 SI WA 12:00:00 NR -11.90 132.00 25 1003 bom 44 33 ______O_______ -1 -11.90 132.00 20 25 1003 2.00 107 3 5 2 61
1999 SI WA 15:00:00 NR -11.84 132.10 33 33 ______P_______ -1 -11.84 132.10 20 25 1002 107 2 63
1999 SI WA 18:00:00 NR -11.80 132.20 25 1001 bom 33 21 ______O_______ -1 -11.80 132.20 20 25 1001 2.00 107 3 5 2 74
1999 SI WA 21:00:00 NR -11.78 132.32 32 10 ______P_______ -1 -11.78 132.32 20 25 1001 107 6 294
1999 SI WA 1999-03-16 00:00:00 TS -11.53 131.60 25 1002 bom 10 0 O_____O_____O_ jtwc_sh SH301999 -11.00 130.20 20 -1 -11.80 132.30 20 25 1002 2.00 107 3 5 -11.00 130.20 TC 20 9 291
1999 SI WA 03:00:00 TS -11.45 131.46 0 0 P_____P_____P_ SH301999 -11.02 130.98 22 -1 -11.89 131.94 20 25 1001 107 -11.02 130.98 TC 22 1 338
1999 SI WA 06:00:00 TS -11.46 131.56 25 1001 bom 10 10 O_____O_____O_ jtwc_sh SH301999 -11.10 131.60 25 -1 -12.00 131.50 20 25 1001 2.00 107 3 5 -11.10 131.60 TC 25 3 111
1999 SI WA 09:00:00 TS -11.55 131.72 21 21 P_____P_____P_ SH301999 -11.27 131.94 25 -1 -12.11 131.27 20 25 1002 107 -11.27 131.94 TC 25 3 143
1999 SI WA 12:00:00 TS -11.73 131.77 25 1003 bom 34 34 O_____O_____O_ jtwc_sh SH301999 -11.50 132.10 25 -1 -12.20 131.10 20 25 1003 2.00 107 3 5 -11.50 132.10 TC 25 4 159
1999 SI WA 15:00:00 TS -11.91 131.86 44 22 P_____P_____P_ SH301999 -11.73 132.33 25 -1 -12.26 130.91 20 25 1002 107 -11.73 132.33 TC 25 4 178
1999 SI WA 18:00:00 TS -12.10 131.77 25 1002 bom 22 0 O_____O_____O_ jtwc_sh SH301999 -12.00 132.30 25 -1 -12.30 130.70 20 25 1002 2.00 107 3 5 -12.00 132.30 TC 25 7 230
1999 SI WA 21:00:00 TS -12.35 131.32 0 0 P_____P_____P_ SH301999 -12.37 131.76 25 -1 -12.31 130.46 20 25 1002 134 -12.37 131.76 TC 25 11 245
1999 SI WA 1999-03-17 00:00:00 TS -12.57 130.73 25 1002 bom 0 0 O_____O_____O_ jtwc_sh SH301999 -12.70 131.00 25 -1 -12.30 130.20 20 25 1002 2.00 161 3 5 -12.70 131.00 TC 25 11 252
1999 SI WA 03:00:00 TS -12.68 130.27 10 10 P_____P_____P_ SH301999 -12.87 130.42 25 -1 -12.29 129.96 20 25 1001 161 -12.87 130.42 TC 25 10 262
1999 SI WA 06:00:00 TS -12.70 129.77 25 1000 bom 46 46 O_____O_____O_ jtwc_sh SH301999 -12.90 129.80 25 -1 -12.30 129.70 20 25 1000 2.00 161 3 5 -12.90 129.80 TC 25 11 273
1999 SI WA 09:00:00 TS -12.63 129.11 117 117 P_____P_____P_ SH301999 -12.77 128.96 27 -1 -12.34 129.40 20 27 1000 161 -12.77 128.96 TC 27 13 277
1999 SI WA 12:00:00 TS -12.53 128.47 30 1000 bom 179 175 O_____O_____O_ jtwc_sh SH301999 -12.60 128.20 30 -1 -12.40 129.00 20 30 1000 2.50 161 3 5 -12.60 128.20 TC 30 11 277
1999 SI WA 15:00:00 TS -12.49 127.98 175 155 P_____P_____P_ SH301999 -12.51 127.76 30 -1 -12.45 128.43 20 32 999 188 -12.51 127.76 TC 30 8 272
1999 SI WA 18:00:00 TS -12.50 127.60 35 998 bom 155 136 O_____O_____O_ jtwc_sh SH301999 -12.50 127.50 30 -1 -12.50 127.80 30 35 998 3.00 215 3 5 -12.50 127.50 TC 30 7 261
1999 SI WA 21:00:00 TS -12.59 127.32 136 123 P_____P_____P_ SH301999 -12.61 127.37 32 -1 -12.56 127.23 30 37 996 228 -12.61 127.37 TC 32 6 255
1999 SI WA 1999-03-18 00:00:00 TS -12.67 126.97 40 994 bom 123 123 O_____O_____O_ jtwc_sh SH301999 -12.70 127.10 35 0 -12.60 126.70 30 40 994 3.00 242 1008 3 5 -12.70 127.10 TC 35 10 269
1999 SI WA 03:00:00 TS -12.61 126.31 45 990 bom 149 149 P_____O_____P_ SH301999 -12.62 126.36 37 0 -12.60 126.20 30 45 990 3.00 242 3 5 -12.62 126.36 TC 37 14 276
1999 SI WA 06:00:00 TS -12.53 125.57 50 988 bom 176 176 O_____O_____O_ jtwc_sh SH301999 -12.50 125.50 40 0 -12.60 125.70 30 50 988 3.50 269 3 5 -12.50 125.50 TC 40 14 276
1999 SI WA 09:00:00 TS -12.46 124.89 50 986 bom 212 212 P_____O_____P_ SH301999 -12.45 124.88 37 0 -12.50 124.90 30 50 986 3.50 269 3 5 -12.45 124.88 TC 37 12 272
1999 SI WA 12:00:00 TS -12.50 124.30 50 984 bom 241 237 O_____O_____O_ jtwc_sh SH301999 -12.50 124.30 35 0 -12.50 124.30 30 50 984 3.50 269 3 5 -12.50 124.30 TC 35 12 258
1999 SI WA 15:00:00 TS -12.71 123.70 257 257 P_____P_____P_ SH301999 -12.72 123.58 45 0 -12.70 123.94 30 57 981 269 -12.72 123.58 TC 45 13 249
1999 SI WA 16:00:00 TS -12.81 123.49 60 980 bom 268 268 P_____O_____P_ SH301999 -12.81 123.34 48 0 -12.80 123.80 30 60 980 4.00 269 3 5 -12.81 123.34 TC 48 13 245
1999 SI WA 18:00:00 TS -13.00 123.08 289 289 O_____P_____O_ jtwc_sh SH301999 -13.00 122.90 55 0 -13.00 123.43 30 63 976 269 -13.00 122.90 TC 55 13 245
1999 SI WA 19:00:00 TS -13.08 122.89 65 975 bom 299 299 P_____O_____P_ SH301999 -13.07 122.73 56 0 -13.10 123.20 40 65 975 4.00 269 3 5 -13.07 122.73 TC 56 12 249
1999 SI WA 21:00:00 TS -13.22 122.49 331 331 P_____P_____P_ SH301999 -13.21 122.44 60 0 -13.25 122.59 40 68 971 269 -13.21 122.44 TC 60 12 251
1999 SI WA 22:00:00 TS -13.28 122.30 70 970 bom 342 342 P_____O_____P_ SH301999 -13.27 122.30 61 0 -13.30 122.30 40 70 970 4.50 269 3 5 -13.27 122.30 TC 61 11 252
1999 SI WA 1999-03-19 00:00:00 TS -13.39 121.96 357 357 O_____P_____O_ jtwc_sh SH301999 -13.40 122.00 65 1 -13.37 121.88 40 70 966 269 -13.40 122.00 TC 65 11 253
1999 SI WA 01:00:00 TS -13.44 121.77 70 965 bom 366 359 P_____O_____P_ SH301999 -13.46 121.80 66 1 -13.40 121.70 40 70 965 4.50 269 1006 3 5 -13.46 121.80 TC 66 12 255
1999 SI WA 03:00:00 TS -13.55 121.34 368 367 P_____P_____P_ SH301999 -13.59 121.36 70 1 -13.46 121.30 40 73 961 269 -13.59 121.36 TC 70 13 255
1999 SI WA 04:00:00 TS -13.61 121.13 75 960 bom 375 373 P_____O_____P_ SH301999 -13.66 121.14 71 1 -13.50 121.10 40 75 960 4.50 269 3 5 -13.66 121.14 TC 71 13 253
1999 SI WA 06:00:00 TS -13.74 120.69 381 381 O_____P_____O_ jtwc_sh SH301999 -13.80 120.70 75 1 -13.62 120.68 40 75 960 269 -13.80 120.70 TC 75 13 251
1999 SI WA 07:00:00 TS -13.82 120.50 75 960 bom 391 391 P_____O_____P_ SH301999 -13.88 120.49 75 1 -13.70 120.50 40 75 960 4.50 269 3 5 -13.88 120.49 TC 75 12 244
1999 SI WA 09:00:00 TS -14.00 120.14 410 410 P_____P_____P_ SH301999 -14.05 120.11 77 1 -13.89 120.22 40 78 956 304 -14.05 120.11 TC 77 11 242
1999 SI WA 10:00:00 TS -14.09 119.98 80 955 bom 410 410 P_____O_____P_ SH301999 -14.14 119.92 78 1 -14.00 120.10 40 80 955 5.00 323 3 5 -14.14 119.92 TC 78 11 239
1999 SI WA 12:00:00 TS -14.27 119.68 417 417 O_____P_____O_ jtwc_sh SH301999 -14.30 119.60 80 1 -14.20 119.84 40 83 955 323 -14.30 119.60 TC 80 10 239
1999 SI WA 13:00:00 TS -14.34 119.55 85 955 bom 433 425 P_____O_____P_ SH301999 -14.36 119.47 81 1 -14.30 119.70 40 85 955 5.00 323 3 5 -14.36 119.47 TC 81 9 239
1999 SI WA 15:00:00 TS -14.49 119.29 433 433 P_____P_____P_ SH301999 -14.48 119.25 85 2 -14.50 119.37 40 88 951 323 -14.48 119.25 TC 85 9 239
1999 SI WA 16:00:00 TS -14.57 119.16 90 950 bom 433 442 P_____O_____P_ SH301999 -14.55 119.14 86 2 -14.60 119.20 40 90 950 5.50 323 3 5 -14.55 119.14 TC 86 9 238
1999 SI WA 18:00:00 TS -14.73 118.89 452 452 O_____P_____O_ jtwc_sh SH301999 -14.70 118.90 90 2 -14.79 118.86 40 93 950 323 -14.70 118.90 TC 90 10 238
1999 SI WA 19:00:00 TS -14.84 118.72 95 950 bom 463 456 P_____O_____P_ SH301999 -14.80 118.73 90 2 -14.90 118.70 40 95 950 5.50 323 3 5 -14.80 118.73 TC 90 12 234
1999 SI WA 21:00:00 TS -15.08 118.37 473 473 P_____P_____P_ SH301999 -15.04 118.34 90 2 -15.17 118.44 40 98 946 323 -15.04 118.34 TC 90 13 233
1999 SI WA 22:00:00 TS -15.21 118.20 100 945 bom 486 486 P_____O_____P_ SH301999 -15.17 118.15 90 2 -15.30 118.30 40 100 945 5.50 323 4 4 5 -15.17 118.15 TC 90 12 235
1999 SI WA 1999-03-20 00:00:00 TS -15.44 117.85 505 505 O_____P_____O_ jtwc_sh SH301999 -15.40 117.80 90 2 -15.51 117.96 40 106 945 323 -15.40 117.80 TC 90 11 236
1999 SI WA 01:00:00 TS -15.53 117.71 110 945 bom 520 516 P_____O_____P_ SH301999 -15.49 117.67 92 2 -15.60 117.80 40 110 945 5.50 323 1006 4 4 5 -15.49 117.67 TC 92 9 236
1999 SI WA 03:00:00 TS -15.68 117.48 520 513 P_____P_____P_ SH301999 -15.65 117.45 97 3 -15.74 117.52 40 110 941 358 -15.65 117.45 TC 97 8 235
1999 SI WA 04:00:00 TS -15.75 117.38 110 940 bom 513 507 P_____O_____P_ SH301999 -15.73 117.36 100 3 -15.80 117.40 40 110 940 6.00 377 8 4 5 -15.73 117.36 TC 100 7 230
1999 SI WA 06:00:00 TS -15.91 117.19 511 503 O_____P_____O_ jtwc_sh SH301999 -15.90 117.20 105 3 -15.93 117.18 40 110 936 377 -15.90 117.20 TC 105 7 226
1999 SI WA 07:00:00 TS -16.00 117.11 110 935 bom 503 484 P_____O_____P_ SH301999 -16.01 117.11 107 3 -16.00 117.10 40 110 935 6.00 377 8 4 5 -16.01 117.11 TC 107 8 214
1999 SI WA 09:00:00 TS -16.22 116.97 484 473 P_____P_____P_ SH301999 -16.23 116.94 112 3 -16.19 117.03 40 113 931 377 -16.23 116.94 TC 112 8 210
1999 SI WA 10:00:00 TS -16.34 116.91 115 930 bom 475 457 P_____O_____P_ SH301999 -16.36 116.86 115 4 -16.30 117.00 40 115 930 6.00 377 8 4 5 -16.36 116.86 TC 115 8 211
1999 SI WA 12:00:00 TS -16.56 116.76 446 436 O_____P_____O_ jtwc_sh SH301999 -16.60 116.70 120 4 -16.49 116.88 40 115 926 377 -16.60 116.70 TC 120 8 213
1999 SI WA 13:00:00 TS -16.68 116.68 115 925 bom 436 414 P_____O_____P_ SH301999 -16.72 116.62 120 4 -16.60 116.80 40 115 925 6.50 377 5 4 5 -16.72 116.62 TC 120 9 214
1999 SI WA 15:00:00 TS -16.93 116.50 414 403 P_____P_____P_ SH301999 -16.96 116.45 122 4 -16.87 116.61 40 118 921 377 -16.96 116.45 TC 122 9 215
1999 SI WA 16:00:00 TS -17.05 116.41 120 920 bom 403 372 P_____O_____P_ SH301999 -17.07 116.37 123 4 -17.00 116.50 40 120 920 7.00 377 5 4 5 -17.07 116.37 TC 123 9 217
1999 SI WA 18:00:00 TS -17.27 116.23 372 361 O_____P_____O_ jtwc_sh SH301999 -17.30 116.20 125 4 -17.21 116.30 40 120 913 377 -17.30 116.20 TC 125 8 218
1999 SI WA 19:00:00 TS -17.37 116.15 120 910 bom 363 352 P_____O_____P_ SH301999 -17.40 116.12 125 4 -17.30 116.20 40 120 910 7.00 377 5 4 5 -17.40 116.12 TC 125 8 219
1999 SI WA 21:00:00 TS -17.56 115.98 343 335 P_____P_____P_ SH301999 -17.60 115.97 125 4 -17.49 116.00 40 116 910 377 -17.60 115.97 TC 125 8 219
1999 SI WA 22:00:00 TS -17.66 115.89 115 910 bom 335 319 P_____O_____P_ SH301999 -17.70 115.89 125 4 -17.60 115.90 40 115 910 7.00 377 5 4 5 -17.70 115.89 TC 125 9 219
1999 SI WA 1999-03-21 00:00:00 TS -17.89 115.70 319 312 O_____P_____O_ jtwc_sh SH301999 -17.90 115.70 125 4 -17.88 115.70 40 108 913 377 -17.90 115.70 TC 125 9 221
1999 SI WA 01:00:00 TS -18.01 115.58 105 915 bom 312 301 P_____O_____P_ SH301999 -18.01 115.57 125 4 -18.00 115.60 40 105 915 6.50 377 1002 5 4 5 -18.01 115.57 TC 125 10 229
1999 SI WA 03:00:00 TS -18.21 115.32 305 296 P_____P_____P_ SH301999 -18.24 115.29 125 4 -18.14 115.40 40 105 915 377 -18.24 115.29 TC 125 9 231
1999 SI WA 04:00:00 TS -18.31 115.20 105 915 bom 301 294 P_____O_____P_ SH301999 -18.36 115.14 125 4 -18.20 115.30 40 105 915 6.50 377 5 4 5 -18.36 115.14 TC 125 9 227
1999 SI WA 06:00:00 TS -18.53 114.96 294 291 O_____P_____O_ jtwc_sh SH301999 -18.60 114.90 125 4 -18.39 115.08 40 101 918 377 -18.60 114.90 TC 125 9 222
1999 SI WA 07:00:00 TS -18.64 114.88 100 920 bom 291 267 P_____O_____P_ SH301999 -18.71 114.82 125 4 -18.50 115.00 40 100 920 6.00 377 9 6 5 -18.71 114.82 TC 125 8 205
1999 SI WA 09:00:00 TS -18.88 114.79 267 258 P_____P_____P_ SH301999 -18.93 114.70 125 4 -18.77 114.95 40 100 920 377 -18.93 114.70 TC 125 8 200
1999 SI WA 10:00:00 TS -19.00 114.74 100 920 bom 264 255 P_____O_____P_ SH301999 -19.05 114.66 125 4 -18.90 114.90 40 100 920 6.00 377 11 6 5 -19.05 114.66 TC 125 8 203
1999 SI WA 11:00:00 TS -19.11 114.69 105 920 bom 255 246 P_____O_____P_ SH301999 -19.17 114.63 125 4 -19.00 114.80 40 105 920 6.50 377 11 6 5 -19.17 114.63 TC 125 8 194
1999 SI WA 12:00:00 TS -19.27 114.67 105 920 bom 237 233 O_____O_____O_ jtwc_sh SH301999 -19.30 114.60 125 4 -19.20 114.80 40 105 920 6.50 377 10 6 5 -19.30 114.60 TC 125 9 194
1999 SI WA 13:00:00 TS -19.42 114.61 105 920 bom 233 224 P_____O_____P_ SH301999 -19.43 114.56 125 4 -19.40 114.70 40 105 920 6.50 377 10 6 5 -19.43 114.56 TC 125 9 202
1999 SI WA 14:00:00 TS -19.54 114.55 110 920 bom 230 222 P_____O_____P_ SH301999 -19.56 114.52 125 4 -19.50 114.60 40 110 920 6.50 377 10 6 5 -19.56 114.52 TC 125 8 197
1999 SI WA 15:00:00 TS -19.67 114.52 110 920 bom 214 205 P_____O_____P_ SH301999 -19.70 114.48 125 4 -19.60 114.60 40 110 920 6.50 377 10 6 5 -19.70 114.48 TC 125 8 195
1999 SI WA 16:00:00 TS -19.80 114.47 110 920 bom 205 197 P_____O_____P_ SH301999 -19.85 114.45 125 4 -19.70 114.50 40 110 920 6.50 377 10 6 5 -19.85 114.45 TC 125 10 192
1999 SI WA 17:00:00 TS -19.98 114.45 110 920 bom 197 186 P_____O_____P_ SH301999 -20.02 114.42 125 4 -19.90 114.50 40 110 920 6.50 377 10 6 5 -20.02 114.42 TC 125 10 186
1999 SI WA 18:00:00 TS -20.13 114.43 110 920 bom 186 154 O_____O_____O_ jtwc_sh SH301999 -20.20 114.40 125 4 -20.00 114.50 40 110 920 6.50 377 10 6 5 -20.20 114.40 TC 125 12 186
1999 SI WA 19:00:00 TS -20.37 114.42 110 920 bom 154 133 P_____O_____P_ SH301999 -20.40 114.38 125 4 -20.30 114.50 40 110 920 6.50 377 9 6 5 -20.40 114.38 TC 125 14 0
1999 SI WA 20:00:00 TS -20.58 114.40 110 920 bom 133 113 P_____O_____P_ SH301999 -20.63 114.35 125 4 -20.50 114.50 40 110 920 6.50 377 10 6 5 -20.62 114.36 TC 125 13 182
1999 SI WA 21:00:00 TS -20.81 114.39 110 920 bom 113 91 P_____O_____P_ SH301999 -20.86 114.34 125 4 -20.70 114.50 40 110 920 6.50 377 9 6 5 -20.86 114.34 TC 125 13 181
1999 SI WA 22:00:00 TS -21.03 114.39 110 920 bom 91 59 P_____O_____P_ SH301999 -21.11 114.32 125 4 -20.90 114.50 40 110 920 6.50 377 9 6 5 -21.10 114.33 TC 125 13 184
1999 SI WA 23:00:00 TS -21.25 114.39 110 920 bom 59 39 P_____O_____P_ SH301999 -21.35 114.31 125 4 -21.10 114.50 40 110 920 6.50 377 8 6 5 -21.35 114.31 TC 125 15 177
1999 SI WA 1999-03-22 00:00:00 TS -21.51 114.39 110 920 bom 39 30 O_____O_____O_ jtwc_sh SH301999 -21.60 114.30 125 4 -21.40 114.50 40 110 920 6.50 377 9 6 5 -21.60 114.30 TC 125 14 186
1999 SI WA 01:00:00 NR -21.71 114.34 110 920 bom 30 20 P_____O_______ SH301999 -21.82 114.28 120 4 -21.60 114.40 40 110 920 6.50 377 1004 10 6 5 TC 14 186
1999 SI WA 02:00:00 NR -21.97 114.33 110 920 bom 20 20 P_____O_______ SH301999 -22.04 114.25 116 4 -21.90 114.40 40 110 920 6.50 377 11 6 5 TC 14 182
1999 SI WA 03:00:00 NR -22.18 114.32 105 920 bom 15 10 P_____O_______ SH301999 -22.26 114.24 112 3 -22.10 114.40 40 105 920 6.00 377 11 6 5 TC 14 186
1999 SI WA 04:00:00 NR -22.45 114.27 105 925 bom 10 0 P_____O_______ SH301999 -22.49 114.24 108 3 -22.40 114.30 40 105 925 6.00 323 9 6 5 TC 16 178
1999 SI WA 05:00:00 NR -22.72 114.33 100 930 bom 0 0 P_____O_______ SH301999 -22.74 114.26 104 3 -22.70 114.40 40 100 930 323 8 6 9 TC 15 172
1999 SI WA 06:00:00 NR -22.95 114.35 90 935 bom 0 0 O_____O_______ jtwc_sh SH301999 -23.00 114.30 100 3 -22.90 114.40 40 90 935 323 5 6 9 16 175
1999 SI WA 07:00:00 NR -23.25 114.38 85 935 bom 0 0 P_____O_______ SH301999 -23.30 114.36 94 2 -23.20 114.40 40 85 935 323 5 6 9 17 168
1999 SI WA 08:00:00 NR -23.50 114.47 80 940 bom 0 0 P_____O_______ SH301999 -23.61 114.44 88 2 -23.40 114.50 40 80 940 323 4 6 9 18 163
1999 SI WA 09:00:00 NR -23.82 114.57 75 940 bom 0 0 P_____O_______ SH301999 -23.93 114.55 82 1 -23.70 114.60 40 75 940 323 6 9 20 159
1999 SI WA 10:00:00 NR -24.13 114.74 70 945 bom 0 0 P_____O_______ SH301999 -24.26 114.67 76 1 -24.00 114.80 40 70 945 323 6 9 19 155
1999 SI WA 11:00:00 NR -24.39 114.86 70 945 bom 0 0 P_____O_______ SH301999 -24.59 114.83 70 1 -24.20 114.90 40 70 945 323 6 9 19 153
1999 SI WA 12:00:00 NR -24.70 115.05 65 950 bom 0 0 O_____O_______ jtwc_sh SH301999 -24.90 115.00 65 1 -24.50 115.10 40 65 950 323 6 9 21 151
1999 SI WA 13:00:00 NR -25.00 115.24 60 950 bom 0 0 P_____O_______ SH301999 -25.20 115.17 63 0 -24.80 115.30 30 60 950 323 6 9 21 150
1999 SI WA 14:00:00 NR -25.29 115.43 60 955 bom 0 0 P_____O_______ SH301999 -25.48 115.36 61 0 -25.10 115.50 30 60 955 323 6 9 21 148
1999 SI WA 15:00:00 NR -25.58 115.64 55 955 bom 0 0 P_____O_______ SH301999 -25.76 115.58 60 0 -25.40 115.70 30 55 955 323 6 7 22 143
1999 SI WA 16:00:00 NR -25.86 115.91 55 960 bom 0 0 P_____O_______ SH301999 -26.02 115.82 58 0 -25.70 116.00 30 55 960 323 6 7 20 138
1999 SI WA 18:00:00 NR -26.31 116.37 0 0 O_____P_______ jtwc_sh SH301999 -26.50 116.40 55 0 -26.11 116.35 30 51 966 323 18 135
1999 SI WA 19:00:00 NR -26.50 116.62 50 970 bom 0 0 P_____O_______ SH301999 -26.70 116.74 52 0 -26.30 116.50 30 50 970 323 3 7 20 129
1999 SI WA 21:00:00 NR -26.94 117.25 0 0 P_____P_______ SH301999 -27.07 117.51 47 0 -26.81 117.00 30 46 973 323 22 127
1999 SI WA 22:00:00 NR -27.17 117.60 45 975 bom 0 0 P_____O_______ SH301999 -27.24 117.91 44 0 -27.10 117.30 21 45 975 85,85, , 323 3 7 24 128
1999 SI WA 1999-03-23 00:00:00 NR -27.67 118.30 0 0 O_____P_______ jtwc_sh SH301999 -27.60 118.70 40 0 -27.73 117.90 21 45 978 81,81, , 323 25 130
1999 SI WA 01:00:00 NR -27.96 118.67 45 980 bom 0 0 P_____O_______ SH301999 -27.81 119.04 38 0 -28.10 118.30 21 45 980 80,80, , 323 1008 3 7 29 131
1999 SI WA 03:00:00 NR -28.61 119.54 0 0 P_____P_______ SH301999 -28.26 119.70 35 0 -28.96 119.37 21 41 983 80,80, , 323 31 130
1999 SI WA 04:00:00 NR -28.95 120.01 40 985 bom 0 0 P_____O_______ SH301999 -28.50 120.03 33 -1 -29.40 120.00 21 40 985 80,80, , 323 3 7 33 128
1999 SI WA 06:00:00 NR -29.61 121.01 0 0 O_____P_______ jtwc_sh SH301999 -29.00 120.70 30 -1 -30.23 121.32 21 36 986 80,80, , 323 33 127
1999 SI WA 07:00:00 NR -29.93 121.53 35 988 bom 0 0 P_____O_______ SH301999 -29.26 121.06 29 -1 -30.60 122.00 21 35 988 80,80, , 323 3 7 35 125
1999 SI WA 09:00:00 NR -30.61 122.68 0 0 P_____P_______ SH301999 -29.79 121.81 27 -1 -31.22 123.33 21 35 989 80,80, , 323 39 124
1999 SI WA 10:00:00 NR -31.02 123.40 35 990 bom 0 0 P_____O_______ SH301999 -30.06 122.20 26 -1 -31.50 124.00 21 35 990 80,80, , 323 3 7 45 121
1999 SI WA 12:00:00 NR -31.74 124.91 0 0 O_____P_______ jtwc_sh SH301999 -30.60 123.00 25 -1 -32.03 125.39 21 31 990 323 53 119
1999 SI WA 13:00:00 NR -32.30 126.10 30 990 bom 9 22 ______O_______ SH301999 -1 -32.30 126.10 50 30 990 323 3 7 50 117
1999 SI WA 15:00:00 NR -32.89 127.55 76 76 ______P_______ SH301999 -1 -32.89 127.55 50 30 990 287 41 116
1999 SI WA 16:00:00 NR -33.20 128.30 30 990 bom 131 145 ______O_______ SH301999 -1 -33.20 128.30 50 30 990 269 3 7 43 117
1999 SI WA 18:00:00 NR -33.85 129.83 255 255 ______P_______ -1 -33.85 129.83 50 30 990 251 44 117
1999 SI WA 21:00:00 NR -34.86 132.19 266 202 ______P_______ -1 -34.86 132.19 50 30 990 224 44 117
1999 SI WA 22:00:00 NR -35.20 133.00 30 990 bom 202 ______O_______ -1 -35.20 133.00 50 30 990 215 1006 3 7 44 117